createdAt,value
2023-09-14T00:01:07.027Z,17.14
2023-09-14T00:03:35.124Z,17.19
2023-09-14T00:06:03.173Z,17.24
2023-09-14T00:08:32.671Z,17.24
2023-09-14T00:11:03.985Z,17.22
2023-09-14T00:13:32.692Z,17.21
2023-09-14T00:16:00.915Z,17.28
2023-09-14T00:18:29.707Z,17.27
2023-09-14T00:20:59.712Z,17.25
2023-09-14T00:23:27.664Z,17.24
2023-09-14T00:25:55.623Z,17.32
2023-09-14T00:28:23.595Z,17.33
2023-09-14T00:30:57.841Z,17.35
2023-09-14T00:33:25.895Z,17.40
2023-09-14T00:35:54.165Z,17.40
2023-09-14T00:38:22.151Z,17.37
2023-09-14T00:40:51.030Z,17.32
2023-09-14T00:43:19.036Z,17.32
2023-09-14T00:45:47.580Z,17.29
2023-09-14T00:48:16.184Z,17.28
2023-09-14T00:50:44.645Z,17.29
2023-09-14T00:53:15.974Z,17.27
2023-09-14T00:55:46.060Z,17.25
2023-09-14T00:58:18.118Z,17.23
2023-09-14T01:00:47.786Z,17.23
2023-09-14T01:03:16.440Z,17.22
2023-09-14T01:05:46.606Z,17.22
2023-09-14T01:08:14.970Z,17.19
2023-09-14T01:10:43.341Z,17.19
2023-09-14T01:13:39.548Z,17.19
2023-09-14T01:16:33.115Z,17.19
2023-09-14T01:19:16.677Z,17.17
2023-09-14T01:22:07.144Z,17.16
2023-09-14T01:24:52.977Z,17.13
2023-09-14T01:27:23.330Z,17.13
2023-09-14T01:29:51.227Z,17.13
2023-09-14T01:32:19.288Z,17.09
2023-09-14T01:34:47.418Z,17.09
2023-09-14T01:37:17.643Z,17.09
2023-09-14T01:39:47.189Z,17.10
2023-09-14T01:42:16.334Z,17.09
2023-09-14T01:44:44.886Z,17.08
2023-09-14T01:47:13.300Z,17.07
2023-09-14T01:49:41.246Z,17.07
2023-09-14T01:52:09.746Z,17.06
2023-09-14T01:54:37.755Z,17.05
2023-09-14T01:57:06.053Z,17.04
2023-09-14T01:59:33.987Z,17.05
2023-09-14T02:02:01.959Z,17.04
2023-09-14T02:04:29.896Z,17.04
2023-09-14T02:06:57.818Z,17.04
2023-09-14T02:09:27.791Z,17.04
2023-09-14T02:11:55.811Z,17.02
2023-09-14T02:14:23.900Z,17.04
2023-09-14T02:16:51.889Z,17.11
2023-09-14T02:19:20.456Z,17.09
2023-09-14T02:21:48.464Z,17.05
2023-09-14T02:24:16.486Z,17.04
2023-09-14T02:26:44.969Z,17.08
2023-09-14T02:29:12.883Z,17.06
2023-09-14T02:31:40.837Z,17.03
2023-09-14T02:34:08.890Z,17.01
2023-09-14T02:36:36.849Z,16.99
2023-09-14T02:39:04.894Z,16.98
2023-09-14T02:41:33.001Z,16.97
2023-09-14T02:44:00.903Z,16.95
2023-09-14T02:46:28.937Z,17.02
2023-09-14T02:48:57.056Z,16.99
2023-09-14T02:51:25.016Z,16.98
2023-09-14T02:53:53.004Z,16.98
2023-09-14T02:56:20.922Z,16.95
2023-09-14T02:58:49.038Z,16.95
2023-09-14T03:01:17.096Z,16.93
2023-09-14T03:03:45.134Z,16.92
2023-09-14T03:06:13.276Z,16.93
2023-09-14T03:08:41.510Z,16.91
2023-09-14T03:11:09.555Z,16.90
2023-09-14T03:13:37.530Z,16.91
2023-09-14T03:16:05.786Z,16.90
2023-09-14T03:18:33.970Z,16.88
2023-09-14T03:21:02.150Z,16.87
2023-09-14T03:23:30.210Z,16.87
2023-09-14T03:25:58.946Z,16.87
2023-09-14T03:28:26.850Z,16.87
2023-09-14T03:30:54.872Z,16.87
2023-09-14T03:33:22.894Z,16.89
2023-09-14T03:35:50.845Z,16.89
2023-09-14T03:38:20.570Z,16.89
2023-09-14T03:40:48.663Z,16.91
2023-09-14T03:43:16.685Z,16.91
2023-09-14T03:45:44.819Z,16.92
2023-09-14T03:48:12.927Z,16.93
2023-09-14T03:50:41.091Z,16.94
2023-09-14T03:53:10.504Z,16.94
2023-09-14T03:55:38.615Z,16.93
2023-09-14T03:58:06.748Z,16.90
2023-09-14T04:00:34.984Z,16.92
2023-09-14T04:03:02.972Z,16.92
2023-09-14T04:05:31.251Z,16.88
2023-09-14T04:07:59.146Z,16.90
2023-09-14T04:10:27.096Z,16.89
2023-09-14T04:13:31.347Z,16.90
2023-09-14T04:16:00.282Z,16.92
2023-09-14T04:18:28.829Z,16.93
2023-09-14T04:20:57.174Z,16.95
2023-09-14T04:23:25.204Z,16.95
2023-09-14T04:25:53.574Z,16.94
2023-09-14T04:28:21.789Z,16.96
2023-09-14T04:31:00.787Z,16.99
2023-09-14T04:33:33.617Z,16.99
2023-09-14T04:36:04.687Z,17.00
2023-09-14T04:38:33.039Z,17.02
2023-09-14T04:41:04.596Z,17.00
2023-09-14T04:43:34.847Z,16.98
2023-09-14T04:46:03.987Z,17.00
2023-09-14T04:48:32.199Z,17.03
2023-09-14T04:51:01.033Z,17.03
2023-09-14T04:53:29.776Z,17.05
2023-09-14T04:55:57.733Z,17.06
2023-09-14T04:58:26.796Z,17.03
2023-09-14T05:00:55.431Z,17.07
2023-09-14T05:03:23.495Z,17.08
2023-09-14T05:05:53.571Z,17.08
2023-09-14T05:08:22.262Z,17.08
2023-09-14T05:10:54.457Z,17.10
2023-09-14T05:13:25.415Z,17.11
2023-09-14T05:15:53.514Z,17.11
2023-09-14T05:18:21.987Z,17.13
2023-09-14T05:20:50.702Z,17.13
2023-09-14T05:23:18.689Z,17.12
2023-09-14T05:25:48.097Z,17.18
2023-09-14T05:28:17.483Z,17.22
2023-09-14T05:30:46.071Z,17.18
2023-09-14T05:33:15.036Z,17.17
2023-09-14T05:35:43.530Z,17.18
2023-09-14T05:38:11.533Z,17.23
2023-09-14T05:40:39.473Z,17.20
2023-09-14T05:43:07.581Z,17.22
2023-09-14T05:45:35.970Z,17.21
2023-09-14T05:48:07.288Z,17.22
2023-09-14T05:50:36.838Z,17.19
2023-09-14T05:53:05.114Z,17.18
2023-09-14T05:55:33.067Z,17.13
2023-09-14T05:58:06.475Z,17.11
2023-09-14T06:00:35.289Z,17.08
2023-09-14T06:03:03.380Z,17.07
2023-09-14T06:05:31.541Z,17.05
2023-09-14T06:07:59.653Z,17.01
2023-09-14T06:10:27.588Z,16.96
2023-09-14T06:12:55.660Z,16.93
2023-09-14T06:15:23.737Z,16.94
2023-09-14T06:17:51.898Z,16.91
2023-09-14T06:20:20.040Z,16.91
2023-09-14T06:22:48.018Z,16.87
2023-09-14T06:25:16.400Z,16.85
2023-09-14T06:27:46.564Z,16.83
2023-09-14T06:30:14.870Z,16.81
2023-09-14T06:32:42.785Z,16.94
2023-09-14T06:35:11.311Z,16.99
2023-09-14T06:37:39.252Z,16.96
2023-09-14T06:40:11.465Z,16.92
2023-09-14T06:42:39.579Z,16.88
2023-09-14T06:45:09.298Z,16.91
2023-09-14T06:47:37.360Z,16.94
2023-09-14T06:50:06.534Z,16.94
2023-09-14T06:52:35.145Z,16.97
2023-09-14T06:55:03.181Z,16.99
2023-09-14T06:57:31.507Z,16.99
2023-09-14T06:59:59.462Z,17.02
2023-09-14T07:02:29.501Z,17.04
2023-09-14T07:04:58.076Z,17.05
2023-09-14T07:07:26.544Z,17.08
2023-09-14T07:09:54.651Z,17.10
2023-09-14T07:12:23.039Z,17.12
2023-09-14T07:14:51.871Z,17.12
2023-09-14T07:17:22.277Z,17.15
2023-09-14T07:19:52.006Z,17.13
2023-09-14T07:22:22.329Z,17.16
2023-09-14T07:24:50.677Z,17.16
2023-09-14T07:27:19.386Z,17.19
2023-09-14T07:29:47.341Z,17.23
2023-09-14T07:32:15.346Z,17.25
2023-09-14T07:34:43.296Z,17.27
2023-09-14T07:37:11.234Z,17.26
2023-09-14T07:39:39.259Z,17.28
2023-09-14T07:42:07.417Z,17.34
2023-09-14T07:44:35.295Z,17.40
2023-09-14T07:47:03.453Z,17.43
2023-09-14T07:49:31.465Z,17.49
2023-09-14T07:51:59.503Z,17.55
2023-09-14T07:54:27.474Z,17.60
2023-09-14T07:56:55.486Z,17.65
2023-09-14T07:59:23.404Z,17.70
2023-09-14T08:01:51.365Z,17.74
2023-09-14T08:04:19.432Z,17.76
2023-09-14T08:06:47.524Z,17.79
2023-09-14T08:09:15.448Z,17.83
2023-09-14T08:11:44.734Z,17.83
2023-09-14T08:14:12.690Z,17.86
2023-09-14T08:16:40.750Z,17.84
2023-09-14T08:19:08.899Z,17.89
2023-09-14T08:21:36.847Z,17.91
2023-09-14T08:24:05.039Z,17.93
2023-09-14T08:26:32.979Z,17.97
2023-09-14T08:29:00.982Z,17.99
2023-09-14T08:31:29.034Z,17.97
2023-09-14T08:33:57.245Z,18.03
2023-09-14T08:36:25.235Z,18.06
2023-09-14T08:39:03.371Z,18.11
2023-09-14T08:41:43.934Z,18.19
2023-09-14T08:44:12.390Z,18.24
2023-09-14T08:46:42.025Z,18.28
2023-09-14T08:49:12.584Z,18.33
2023-09-14T08:51:43.694Z,18.38
2023-09-14T08:54:17.378Z,18.45
2023-09-14T08:56:46.160Z,18.52
2023-09-14T08:59:17.472Z,18.58
2023-09-14T09:01:47.415Z,18.64
2023-09-14T09:04:15.567Z,18.70
2023-09-14T09:06:44.991Z,18.74
2023-09-14T09:09:14.461Z,18.71
2023-09-14T09:11:42.399Z,18.76
2023-09-14T09:14:10.361Z,18.78
2023-09-14T09:16:38.341Z,18.82
2023-09-14T09:19:09.800Z,18.88
2023-09-14T09:21:39.109Z,18.95
2023-09-14T09:24:08.805Z,19.00
2023-09-14T09:26:38.451Z,19.08
2023-09-14T09:29:20.660Z,19.15
2023-09-14T09:31:53.057Z,19.15
2023-09-14T09:34:33.749Z,19.20
2023-09-14T09:37:02.065Z,19.23
2023-09-14T09:39:30.077Z,19.23
2023-09-14T09:41:58.058Z,19.25
2023-09-14T09:44:30.205Z,19.29
2023-09-14T09:47:00.199Z,19.33
2023-09-14T09:49:31.344Z,19.39
2023-09-14T09:52:00.153Z,19.45
2023-09-14T09:54:30.071Z,19.53
2023-09-14T09:56:59.095Z,19.63
2023-09-14T09:59:28.525Z,19.74
2023-09-14T10:01:57.975Z,19.86
2023-09-14T10:04:29.679Z,19.93
2023-09-14T10:07:01.978Z,19.93
2023-09-14T10:09:36.979Z,19.89
2023-09-14T10:12:05.961Z,19.90
2023-09-14T10:14:36.969Z,19.96
2023-09-14T10:17:09.466Z,19.99
2023-09-14T10:19:41.077Z,20.03
2023-09-14T10:22:11.114Z,20.09
2023-09-14T10:24:39.720Z,20.09
2023-09-14T10:27:10.246Z,20.07
2023-09-14T10:29:44.655Z,20.08
2023-09-14T10:32:14.430Z,20.11
2023-09-14T10:34:52.251Z,20.12
2023-09-14T10:37:27.233Z,20.14
2023-09-14T10:39:57.165Z,20.17
2023-09-14T10:42:25.384Z,20.22
2023-09-14T10:44:53.581Z,20.23
2023-09-14T10:47:26.006Z,20.25
2023-09-14T10:49:56.173Z,20.28
2023-09-14T10:52:29.331Z,20.27
2023-09-14T10:54:58.684Z,20.30
2023-09-14T10:57:30.882Z,20.38
2023-09-14T11:00:02.259Z,20.47
2023-09-14T11:02:51.393Z,20.54
2023-09-14T11:05:22.163Z,20.58
2023-09-14T11:07:58.848Z,20.62
2023-09-14T11:10:27.666Z,20.67
2023-09-14T11:13:21.274Z,20.69
2023-09-14T11:16:06.905Z,20.77
2023-09-14T11:18:48.453Z,20.94
2023-09-14T11:21:38.408Z,21.10
2023-09-14T11:24:12.141Z,21.30
2023-09-14T11:26:52.735Z,21.40
2023-09-14T11:29:24.618Z,21.50
2023-09-14T11:32:07.651Z,21.58
2023-09-14T11:34:39.968Z,21.66
2023-09-14T11:37:19.158Z,21.68
2023-09-14T11:39:59.176Z,21.65
2023-09-14T11:42:30.490Z,21.58
2023-09-14T11:45:12.368Z,21.54
2023-09-14T11:47:45.986Z,21.49
2023-09-14T11:50:14.775Z,21.48
2023-09-14T11:52:43.781Z,21.50
2023-09-14T11:55:17.226Z,21.52
2023-09-14T11:57:45.229Z,21.53
2023-09-14T12:00:14.166Z,21.54
2023-09-14T12:02:42.297Z,21.52
2023-09-14T12:05:11.534Z,21.54
2023-09-14T12:07:39.490Z,21.52
2023-09-14T12:10:33.814Z,21.52
2023-09-14T12:13:19.679Z,21.48
2023-09-14T12:15:50.147Z,21.52
2023-09-14T12:18:19.310Z,21.53
2023-09-14T12:20:49.699Z,21.57
2023-09-14T12:23:17.776Z,21.57
2023-09-14T12:25:46.490Z,21.65
2023-09-14T12:28:14.838Z,21.76
2023-09-14T12:30:43.159Z,21.84
2023-09-14T12:33:12.664Z,21.82
2023-09-14T12:35:44.427Z,21.77
2023-09-14T12:38:12.469Z,21.77
2023-09-14T12:40:41.006Z,21.73
2023-09-14T12:43:09.879Z,21.70
2023-09-14T12:45:38.223Z,21.73
2023-09-14T12:48:09.517Z,21.80
2023-09-14T12:50:38.469Z,21.87
2023-09-14T12:53:10.932Z,21.91
2023-09-14T12:55:57.090Z,21.94
2023-09-14T12:58:25.289Z,21.96
2023-09-14T13:00:55.159Z,22.01
2023-09-14T13:03:23.383Z,22.02
2023-09-14T13:05:55.924Z,22.05
2023-09-14T13:08:24.078Z,22.08
2023-09-14T13:10:52.029Z,22.12
2023-09-14T13:13:21.476Z,22.19
2023-09-14T13:15:49.436Z,22.19
2023-09-14T13:18:19.961Z,22.23
2023-09-14T13:20:53.241Z,22.19
2023-09-14T13:23:22.227Z,22.18
2023-09-14T13:25:50.266Z,22.13
2023-09-14T13:28:18.235Z,22.10
2023-09-14T13:30:47.565Z,22.10
2023-09-14T13:33:15.637Z,22.08
2023-09-14T13:35:43.736Z,22.10
2023-09-14T13:38:11.625Z,22.10
2023-09-14T13:40:39.894Z,22.09
2023-09-14T13:43:09.914Z,22.09
2023-09-14T13:45:38.033Z,22.05
2023-09-14T13:48:06.066Z,22.04
2023-09-14T13:50:34.036Z,22.02
2023-09-14T13:53:01.936Z,22.01
2023-09-14T13:55:30.349Z,22.01
2023-09-14T13:57:58.299Z,22.01
2023-09-14T14:00:26.302Z,22.01
2023-09-14T14:03:08.665Z,22.05
2023-09-14T14:05:40.905Z,22.08
2023-09-14T14:08:10.317Z,22.11
2023-09-14T14:10:38.355Z,22.14
2023-09-14T14:13:06.467Z,22.19
2023-09-14T14:15:34.688Z,22.24
2023-09-14T14:18:02.773Z,22.29
2023-09-14T14:20:30.815Z,22.34
2023-09-14T14:22:58.816Z,22.39
2023-09-14T14:25:26.788Z,22.45
2023-09-14T14:27:54.909Z,22.51
2023-09-14T14:30:23.155Z,22.57
2023-09-14T14:32:51.356Z,22.59
2023-09-14T14:35:19.410Z,22.62
2023-09-14T14:37:47.317Z,22.63
2023-09-14T14:42:46.456Z,22.58
2023-09-14T14:45:14.347Z,22.56
2023-09-14T14:47:42.293Z,22.51
2023-09-14T14:50:10.337Z,22.48
2023-09-14T14:52:38.540Z,22.42
2023-09-14T14:55:07.582Z,22.37
2023-09-14T14:57:35.661Z,22.32
2023-09-14T15:00:03.745Z,22.31
2023-09-14T15:02:31.805Z,22.28
2023-09-14T15:04:59.750Z,22.25
2023-09-14T15:07:28.006Z,22.23
2023-09-14T15:09:55.953Z,22.21
2023-09-14T15:12:23.952Z,22.21
2023-09-14T15:14:51.903Z,22.21
2023-09-14T15:17:19.848Z,22.20
2023-09-14T15:19:47.738Z,22.19
2023-09-14T15:22:15.670Z,22.15
2023-09-14T15:24:44.425Z,22.14
2023-09-14T15:27:12.340Z,22.11
2023-09-14T15:29:41.768Z,22.11
2023-09-14T15:32:09.822Z,22.11
2023-09-14T15:34:37.843Z,22.09
2023-09-14T15:37:06.099Z,22.09
2023-09-14T15:39:34.283Z,22.07
2023-09-14T15:42:02.405Z,22.06
2023-09-14T15:44:30.396Z,22.03
2023-09-14T15:46:58.482Z,22.03
2023-09-14T15:49:27.362Z,21.98
2023-09-14T15:51:57.190Z,21.95
2023-09-14T15:54:27.832Z,21.92
2023-09-14T15:56:55.993Z,21.92
2023-09-14T15:59:23.878Z,21.88
2023-09-14T16:01:51.861Z,21.86
2023-09-14T16:04:19.877Z,21.83
2023-09-14T16:06:51.595Z,21.81
2023-09-14T16:09:19.574Z,21.75
2023-09-14T16:11:48.513Z,21.75
2023-09-14T16:14:20.240Z,21.72
2023-09-14T16:16:48.313Z,21.72
2023-09-14T16:19:18.214Z,21.68
2023-09-14T16:21:46.272Z,21.68
2023-09-14T16:24:14.419Z,21.67
2023-09-14T16:26:42.489Z,21.64
2023-09-14T16:29:21.632Z,21.61
2023-09-14T16:31:49.714Z,21.58
2023-09-14T16:34:17.653Z,21.56
2023-09-14T16:36:45.654Z,21.55
2023-09-14T16:39:13.754Z,21.52
2023-09-14T16:41:42.327Z,21.50
2023-09-14T16:44:10.359Z,21.48
2023-09-14T16:46:40.303Z,21.46
2023-09-14T16:49:29.947Z,21.46
2023-09-14T16:51:59.404Z,21.43
2023-09-14T16:54:31.174Z,21.43
2023-09-14T16:57:01.562Z,21.42
2023-09-14T16:59:29.668Z,21.40
2023-09-14T17:01:58.024Z,21.37
2023-09-14T17:04:26.086Z,21.34
2023-09-14T17:06:55.425Z,21.34
2023-09-14T17:09:23.721Z,21.32
2023-09-14T17:11:52.040Z,21.31
2023-09-14T17:14:20.249Z,21.28
2023-09-14T17:16:48.277Z,21.26
2023-09-14T17:19:16.585Z,21.26
2023-09-14T17:21:45.304Z,21.22
2023-09-14T17:24:13.247Z,21.22
2023-09-14T17:26:41.568Z,21.19
2023-09-14T17:29:10.505Z,21.16
2023-09-14T17:31:38.438Z,21.17
2023-09-14T17:34:06.690Z,21.14
2023-09-14T17:36:35.045Z,21.11
2023-09-14T17:39:03.823Z,21.10
2023-09-14T17:41:31.956Z,21.08
2023-09-14T17:44:00.338Z,21.07
2023-09-14T17:46:31.039Z,21.06
2023-09-14T17:48:59.241Z,21.02
2023-09-14T17:51:27.419Z,21.01
2023-09-14T17:53:55.361Z,20.99
2023-09-14T17:56:23.406Z,20.99
2023-09-14T17:58:53.505Z,20.95
2023-09-14T18:01:22.398Z,20.96
2023-09-14T18:03:51.878Z,20.91
2023-09-14T18:06:20.435Z,20.89
2023-09-14T18:08:49.642Z,20.89
2023-09-14T18:11:18.405Z,20.88
2023-09-14T18:13:46.443Z,20.86
2023-09-14T18:16:16.775Z,20.83
2023-09-14T18:18:46.070Z,20.80
2023-09-14T18:21:15.027Z,20.80
2023-09-14T18:23:44.001Z,20.78
2023-09-14T18:26:12.032Z,20.75
2023-09-14T18:28:40.017Z,20.75
2023-09-14T18:31:08.194Z,20.75
2023-09-14T18:33:37.057Z,20.72
2023-09-14T18:36:05.356Z,20.70
2023-09-14T18:38:33.337Z,20.68
2023-09-14T18:41:03.325Z,20.66
2023-09-14T18:43:31.868Z,20.64
2023-09-14T18:46:00.287Z,20.61
2023-09-14T18:48:29.299Z,20.59
2023-09-14T18:51:05.265Z,20.57
2023-09-14T18:53:33.554Z,20.57
2023-09-14T18:56:01.774Z,20.55
2023-09-14T19:01:00.805Z,20.53
2023-09-14T19:03:28.919Z,20.53
2023-09-14T19:05:58.016Z,20.52
2023-09-14T19:08:27.355Z,20.53
2023-09-14T19:10:57.238Z,20.53
2023-09-14T19:13:25.460Z,20.52
2023-09-14T19:15:53.874Z,20.50
2023-09-14T19:18:21.945Z,20.52
2023-09-14T19:20:49.956Z,20.51
2023-09-14T19:23:18.159Z,20.51
2023-09-14T19:25:46.058Z,20.51
2023-09-14T19:28:14.025Z,20.51
2023-09-14T19:30:44.964Z,20.47
2023-09-14T19:33:16.256Z,20.47
2023-09-14T19:35:44.992Z,20.47
2023-09-14T19:38:13.066Z,20.49
2023-09-14T19:40:41.087Z,20.49
2023-09-14T19:43:09.051Z,20.47
2023-09-14T19:45:37.795Z,20.45
2023-09-14T19:48:06.640Z,20.44
2023-09-14T19:50:38.660Z,20.47
2023-09-14T19:53:06.783Z,20.45
2023-09-14T19:55:34.897Z,20.47
2023-09-14T19:58:03.011Z,20.46
2023-09-14T20:00:31.160Z,20.46
2023-09-14T20:02:59.829Z,20.45
2023-09-14T20:05:28.247Z,20.45
2023-09-14T20:08:06.640Z,20.45
2023-09-14T20:10:34.806Z,20.43
2023-09-14T20:13:03.363Z,20.41
2023-09-14T20:15:31.852Z,20.41
2023-09-14T20:17:59.903Z,20.39
2023-09-14T20:20:27.972Z,20.36
2023-09-14T20:22:56.043Z,20.34
2023-09-14T20:25:24.110Z,20.32
2023-09-14T20:27:54.833Z,20.30
2023-09-14T20:30:23.214Z,20.28
2023-09-14T20:32:52.541Z,20.24
2023-09-14T20:35:20.898Z,20.20
2023-09-14T20:37:50.265Z,20.18
2023-09-14T20:40:22.218Z,20.13
2023-09-14T20:42:53.509Z,20.08
2023-09-14T20:45:21.605Z,20.03
2023-09-14T20:47:51.696Z,20.00
2023-09-14T20:50:20.914Z,19.93
2023-09-14T20:52:50.903Z,19.92
2023-09-14T20:55:21.674Z,19.88
2023-09-14T20:57:58.857Z,19.83
2023-09-14T21:00:27.490Z,19.81
2023-09-14T21:02:56.010Z,19.74
2023-09-14T21:05:24.124Z,19.69
2023-09-14T21:07:53.032Z,19.62
2023-09-14T21:10:20.941Z,19.59
2023-09-14T21:12:48.913Z,19.56
2023-09-14T21:15:16.904Z,19.53
2023-09-14T21:17:44.862Z,19.48
2023-09-14T21:20:13.113Z,19.45
2023-09-14T21:22:41.299Z,19.40
2023-09-14T21:25:10.025Z,19.34
2023-09-14T21:27:38.810Z,19.32
2023-09-14T21:30:08.963Z,19.31
2023-09-14T21:32:36.961Z,19.27
2023-09-14T21:35:07.717Z,19.24
2023-09-14T21:37:35.621Z,19.21
2023-09-14T21:40:05.097Z,19.19
2023-09-14T21:42:34.277Z,19.18
2023-09-14T21:45:02.135Z,19.14
2023-09-14T21:47:32.859Z,19.18
2023-09-14T21:50:00.783Z,19.25
2023-09-14T21:52:29.437Z,19.27
2023-09-14T21:54:57.427Z,19.24
2023-09-14T21:57:25.396Z,19.27
2023-09-14T21:59:54.774Z,19.24
2023-09-14T22:02:22.807Z,19.28
2023-09-14T22:04:50.795Z,19.29
2023-09-14T22:07:18.735Z,19.36
2023-09-14T22:09:46.612Z,19.35
2023-09-14T22:12:14.563Z,19.37
2023-09-14T22:14:44.211Z,19.32
2023-09-14T22:17:12.619Z,19.27
2023-09-14T22:19:42.921Z,19.20
2023-09-14T22:22:11.204Z,19.22
2023-09-14T22:24:39.221Z,19.25
2023-09-14T22:27:07.897Z,19.25
2023-09-14T22:29:37.022Z,19.26
2023-09-14T22:32:05.243Z,19.21
2023-09-14T22:34:33.227Z,19.15
2023-09-14T22:37:01.227Z,19.13
2023-09-14T22:39:29.389Z,19.09
2023-09-14T22:41:57.285Z,19.09
2023-09-14T22:44:25.187Z,19.03
2023-09-14T22:46:54.599Z,19.00
2023-09-14T22:49:23.013Z,18.95
2023-09-14T22:51:51.118Z,18.92
2023-09-14T22:54:19.746Z,18.95
2023-09-14T22:56:47.721Z,18.89
2023-09-14T22:59:15.701Z,18.91
2023-09-14T23:01:43.781Z,18.91
2023-09-14T23:04:11.823Z,18.85
2023-09-14T23:06:39.851Z,18.88
2023-09-14T23:09:09.364Z,18.95
2023-09-14T23:11:46.960Z,18.93
2023-09-14T23:14:15.218Z,18.93
2023-09-14T23:16:55.174Z,18.92
2023-09-14T23:19:26.337Z,18.97
2023-09-14T23:21:54.697Z,19.01
2023-09-14T23:24:22.739Z,18.91
2023-09-14T23:26:51.033Z,18.94
2023-09-14T23:29:19.305Z,18.88
2023-09-14T23:31:51.230Z,18.81
2023-09-14T23:34:20.615Z,18.79
2023-09-14T23:36:49.660Z,18.74
2023-09-14T23:39:20.301Z,18.74
2023-09-14T23:41:48.598Z,18.72
2023-09-14T23:44:18.179Z,18.75
2023-09-14T23:46:47.193Z,18.79
2023-09-14T23:49:16.339Z,18.78
2023-09-14T23:51:46.213Z,18.72
2023-09-14T23:54:14.732Z,18.79
2023-09-14T23:56:43.319Z,18.78
2023-09-14T23:59:12.575Z,18.79
